createdAt,value
2022-08-20T00:03:13.775Z,8.10
2022-08-20T00:05:46.883Z,7.50
2022-08-20T00:08:17.024Z,7.43
2022-08-20T00:10:55.574Z,7.97
2022-08-20T00:13:29.379Z,7.40
2022-08-20T00:15:59.842Z,7.43
2022-08-20T00:18:30.185Z,8.25
2022-08-20T00:21:01.470Z,7.88
2022-08-20T00:23:31.365Z,7.47
2022-08-20T00:26:02.818Z,8.65
2022-08-20T00:28:32.891Z,8.10
2022-08-20T00:31:04.385Z,8.10
2022-08-20T00:33:36.742Z,8.13
2022-08-20T00:38:42.381Z,8.00
2022-08-20T00:41:18.882Z,7.32
2022-08-20T00:43:52.303Z,8.00
2022-08-20T00:46:27.894Z,8.02
2022-08-20T00:52:38.203Z,7.38
2022-08-20T00:55:09.961Z,7.65
2022-08-20T00:57:50.659Z,8.18
2022-08-20T01:00:35.060Z,8.32
2022-08-20T01:03:05.262Z,8.20
2022-08-20T01:05:39.704Z,7.95
2022-08-20T01:08:11.339Z,7.53
2022-08-20T01:10:45.563Z,8.18
2022-08-20T01:13:21.183Z,7.80
2022-08-20T01:15:54.883Z,8.00
2022-08-20T01:18:28.320Z,7.43
2022-08-20T01:21:04.421Z,7.03
2022-08-20T01:23:45.158Z,7.53
2022-08-20T01:26:20.221Z,7.30
2022-08-20T01:28:54.160Z,6.97
2022-08-20T01:31:26.559Z,7.63
2022-08-20T01:33:59.280Z,7.10
2022-08-20T01:36:36.798Z,6.85
2022-08-20T01:39:10.221Z,7.47
2022-08-20T01:42:02.403Z,7.68
2022-08-20T01:44:33.975Z,7.72
2022-08-20T01:47:16.106Z,7.80
2022-08-20T01:49:52.199Z,7.50
2022-08-20T01:52:33.600Z,7.57
2022-08-20T01:55:04.448Z,7.05
2022-08-20T01:57:36.147Z,6.82
2022-08-20T02:00:19.561Z,7.07
2022-08-20T02:02:50.123Z,7.60
2022-08-20T02:05:21.044Z,7.55
2022-08-20T02:07:51.089Z,7.03
2022-08-20T02:10:22.099Z,7.63
2022-08-20T02:12:53.619Z,7.00
2022-08-20T02:15:34.694Z,7.83
2022-08-20T02:18:10.658Z,7.28
2022-08-20T02:20:42.498Z,7.53
2022-08-20T02:23:15.818Z,6.95
2022-08-20T02:25:48.920Z,7.55
2022-08-20T02:28:21.988Z,7.95
2022-08-20T02:30:55.703Z,7.95
2022-08-20T02:33:26.339Z,8.60
2022-08-20T02:35:57.220Z,8.23
2022-08-20T02:38:27.685Z,8.27
2022-08-20T02:40:57.520Z,8.07
2022-08-20T02:43:28.782Z,8.15
2022-08-20T02:45:58.742Z,8.27
2022-08-20T02:48:29.346Z,8.13
2022-08-20T02:51:02.662Z,8.07
2022-08-20T02:53:36.243Z,7.47
2022-08-20T02:56:07.419Z,7.85
2022-08-20T02:58:39.724Z,8.20
2022-08-20T03:03:43.789Z,7.65
2022-08-20T03:06:16.463Z,8.20
2022-08-20T03:08:46.643Z,7.82
2022-08-20T03:11:17.932Z,7.30
2022-08-20T03:13:49.399Z,7.75
2022-08-20T03:16:19.521Z,7.20
2022-08-20T03:18:52.070Z,7.25
2022-08-20T03:21:22.301Z,8.23
2022-08-20T03:23:52.179Z,7.50
2022-08-20T03:26:21.978Z,7.72
2022-08-20T03:28:53.419Z,8.10
2022-08-20T03:31:23.543Z,7.70
2022-08-20T03:33:53.916Z,8.63
2022-08-20T03:36:28.800Z,7.90
2022-08-20T03:39:01.264Z,7.35
2022-08-20T03:41:32.647Z,7.47
2022-08-20T03:44:04.924Z,6.67
2022-08-20T03:49:04.520Z,8.20
2022-08-20T03:53:36.981Z,8.68
2022-08-20T03:56:08.621Z,8.70
2022-08-20T03:58:38.744Z,7.37
2022-08-20T04:01:37.119Z,7.80
2022-08-20T04:04:00.200Z,7.93
2022-08-20T04:06:30.804Z,7.78
2022-08-20T04:09:02.214Z,7.80
2022-08-20T04:11:33.921Z,7.83
2022-08-20T04:14:03.909Z,8.10
2022-08-20T04:16:34.819Z,7.88
2022-08-20T04:19:05.510Z,7.80
2022-08-20T04:21:36.580Z,8.15
2022-08-20T04:24:09.142Z,7.70
2022-08-20T04:26:59.284Z,7.15
2022-08-20T04:29:32.297Z,7.25
2022-08-20T04:32:05.785Z,8.02
2022-08-20T04:34:36.866Z,7.40
2022-08-20T04:37:16.552Z,7.47
2022-08-20T04:40:08.581Z,7.85
2022-08-20T04:42:40.663Z,8.10
2022-08-20T04:45:14.479Z,8.05
2022-08-20T04:47:44.461Z,8.10
2022-08-20T04:50:15.961Z,8.82
2022-08-20T04:52:45.800Z,7.70
2022-08-20T04:55:18.420Z,7.68
2022-08-20T04:57:49.467Z,8.07
2022-08-20T05:00:20.581Z,8.07
2022-08-20T05:02:50.360Z,7.57
2022-08-20T05:05:22.880Z,7.88
2022-08-20T05:07:53.429Z,7.57
2022-08-20T05:10:25.825Z,7.82
2022-08-20T05:12:57.193Z,7.63
2022-08-20T05:15:27.886Z,7.97
2022-08-20T05:18:03.346Z,8.55
2022-08-20T05:20:39.138Z,7.57
2022-08-20T05:23:12.064Z,7.50
2022-08-20T05:25:46.064Z,8.60
2022-08-20T05:28:26.160Z,7.97
2022-08-20T05:30:56.558Z,8.20
2022-08-20T05:33:26.707Z,8.05
2022-08-20T05:35:56.945Z,8.57
2022-08-20T05:38:31.389Z,9.02
2022-08-20T05:41:03.221Z,8.77
2022-08-20T05:43:34.066Z,8.70
2022-08-20T05:46:03.861Z,9.15
2022-08-20T05:48:35.606Z,8.73
2022-08-20T05:51:05.545Z,8.98
2022-08-20T05:53:35.420Z,8.27
2022-08-20T05:56:07.484Z,7.95
2022-08-20T06:01:07.942Z,7.07
2022-08-20T06:03:55.300Z,7.30
2022-08-20T06:06:45.021Z,7.03
2022-08-20T06:09:16.225Z,7.25
2022-08-20T06:11:47.540Z,6.25
2022-08-20T06:14:18.163Z,6.97
2022-08-20T06:16:57.748Z,6.97
2022-08-20T06:19:32.401Z,6.57
2022-08-20T06:22:17.416Z,6.38
2022-08-20T06:24:50.525Z,6.72
2022-08-20T06:27:22.424Z,6.13
2022-08-20T06:29:53.763Z,6.47
2022-08-20T06:32:31.693Z,6.20
2022-08-20T06:35:03.959Z,6.28
2022-08-20T06:37:36.783Z,6.03
2022-08-20T06:40:11.050Z,5.95
2022-08-20T06:42:48.110Z,5.72
2022-08-20T06:45:21.988Z,5.95
2022-08-20T06:47:52.031Z,6.55
2022-08-20T06:53:36.910Z,5.78
2022-08-20T06:56:07.563Z,5.75
2022-08-20T06:58:38.952Z,5.38
2022-08-20T07:01:10.974Z,5.22
2022-08-20T07:03:55.647Z,5.30
2022-08-20T07:06:27.160Z,5.30
2022-08-20T07:08:59.238Z,5.30
2022-08-20T07:11:29.581Z,5.22
2022-08-20T07:14:00.443Z,5.20
2022-08-20T07:16:30.728Z,4.90
2022-08-20T07:19:00.667Z,7.32
2022-08-20T07:21:30.722Z,4.60
2022-08-20T07:24:02.060Z,5.03
2022-08-20T07:26:32.135Z,4.95
2022-08-20T07:29:02.027Z,4.50
2022-08-20T07:31:49.303Z,5.00
2022-08-20T07:34:19.921Z,4.25
2022-08-20T07:36:50.763Z,4.50
2022-08-20T07:39:22.043Z,4.60
2022-08-20T07:44:33.684Z,4.03
2022-08-20T07:47:05.025Z,4.00
2022-08-20T07:49:34.821Z,4.28
2022-08-20T07:52:04.968Z,5.32
2022-08-20T07:54:38.663Z,5.53
2022-08-20T07:57:08.783Z,4.32
2022-08-20T07:59:41.960Z,5.20
2022-08-20T08:02:11.929Z,5.00
2022-08-20T08:04:41.879Z,4.68
2022-08-20T08:07:11.844Z,4.95
2022-08-20T08:09:44.604Z,4.53
2022-08-20T08:12:17.390Z,5.53
2022-08-20T08:14:49.760Z,4.53
2022-08-20T08:17:21.502Z,5.32
2022-08-20T08:19:53.202Z,4.78
2022-08-20T08:24:57.404Z,4.82
2022-08-20T08:27:27.979Z,4.82
2022-08-20T08:29:59.390Z,4.13
2022-08-20T08:32:31.547Z,4.85
2022-08-20T08:35:04.923Z,4.80
2022-08-20T08:37:34.800Z,4.68
2022-08-20T08:40:07.987Z,4.72
2022-08-20T08:42:45.582Z,4.72
2022-08-20T08:45:18.026Z,4.47
2022-08-20T08:47:48.465Z,4.97
2022-08-20T08:50:50.089Z,5.30
2022-08-20T08:53:27.183Z,5.00
2022-08-20T08:55:58.981Z,5.50
2022-08-20T08:58:29.599Z,5.18
2022-08-20T09:01:02.142Z,5.18
2022-08-20T09:03:40.285Z,5.72
2022-08-20T09:06:10.962Z,4.90
2022-08-20T09:08:48.425Z,4.43
2022-08-20T09:11:22.261Z,4.60
2022-08-20T09:13:54.641Z,4.78
2022-08-20T09:16:28.075Z,5.03
2022-08-20T09:19:07.587Z,4.60
2022-08-20T09:21:37.681Z,4.93
2022-08-20T09:24:07.946Z,5.25
2022-08-20T09:26:39.446Z,4.70
2022-08-20T09:31:39.269Z,6.65
2022-08-20T09:34:09.578Z,5.03
2022-08-20T09:36:39.417Z,4.72
2022-08-20T09:39:10.319Z,5.03
2022-08-20T09:41:41.976Z,5.75
2022-08-20T09:44:11.909Z,5.20
2022-08-20T09:46:41.822Z,5.13
2022-08-20T09:49:11.724Z,4.68
2022-08-20T09:53:37.818Z,4.90
2022-08-20T09:56:08.238Z,5.35
2022-08-20T09:58:47.842Z,5.50
2022-08-20T10:01:21.742Z,5.25
2022-08-20T10:03:52.687Z,6.05
2022-08-20T10:06:23.298Z,5.43
2022-08-20T10:08:54.701Z,7.00
2022-08-20T10:11:24.608Z,6.45
2022-08-20T10:13:55.001Z,7.38
2022-08-20T10:16:25.002Z,5.47
2022-08-20T10:18:54.981Z,5.65
2022-08-20T10:21:24.882Z,5.32
2022-08-20T10:23:56.307Z,7.07
2022-08-20T10:26:27.921Z,6.97
2022-08-20T10:31:30.125Z,5.38
2022-08-20T10:33:59.987Z,5.78
2022-08-20T10:36:29.859Z,5.32
2022-08-20T10:39:01.385Z,5.47
2022-08-20T10:44:00.792Z,5.70
2022-08-20T10:46:30.861Z,5.50
2022-08-20T10:49:00.741Z,5.38
2022-08-20T10:51:32.610Z,5.78
2022-08-20T10:54:06.254Z,5.43
2022-08-20T10:56:42.788Z,5.55
2022-08-20T10:59:12.831Z,6.00
2022-08-20T11:01:42.776Z,9.80
2022-08-20T11:04:12.826Z,8.07
2022-08-20T11:06:42.738Z,7.20
2022-08-20T11:09:14.352Z,7.90
2022-08-20T11:11:44.200Z,4.95
2022-08-20T11:14:14.102Z,9.85
2022-08-20T11:16:44.045Z,5.28
2022-08-20T11:19:13.866Z,6.50
2022-08-20T11:21:43.844Z,5.50
2022-08-20T11:24:15.164Z,5.60
2022-08-20T11:26:45.243Z,6.10
2022-08-20T11:29:15.185Z,5.38
2022-08-20T11:31:45.364Z,8.45
2022-08-20T11:34:15.382Z,6.85
2022-08-20T11:36:45.906Z,6.50
2022-08-20T11:39:17.846Z,5.05
2022-08-20T11:41:48.244Z,4.80
2022-08-20T11:44:25.502Z,5.35
2022-08-20T11:46:55.549Z,4.60
2022-08-20T11:49:25.459Z,5.03
2022-08-20T11:51:55.306Z,4.85
2022-08-20T11:54:29.199Z,4.65
2022-08-20T11:56:59.955Z,5.03
2022-08-20T11:59:30.567Z,5.43
2022-08-20T12:02:02.915Z,5.30
2022-08-20T12:04:35.189Z,4.57
2022-08-20T12:07:13.047Z,4.93
2022-08-20T12:09:51.275Z,5.10
2022-08-20T12:12:23.840Z,5.00
2022-08-20T12:14:56.241Z,5.30
2022-08-20T12:17:29.962Z,4.60
2022-08-20T12:20:02.743Z,5.32
2022-08-20T12:22:32.753Z,5.22
2022-08-20T12:25:04.039Z,4.60
2022-08-20T12:27:36.552Z,4.85
2022-08-20T12:30:12.203Z,5.18
2022-08-20T12:32:42.645Z,5.00
2022-08-20T12:35:15.702Z,5.50
2022-08-20T12:37:47.247Z,4.80
2022-08-20T12:40:30.641Z,5.40
2022-08-20T12:43:03.120Z,5.80
2022-08-20T12:45:34.561Z,5.55
2022-08-20T12:53:36.623Z,5.25
2022-08-20T12:58:36.992Z,5.30
2022-08-20T13:01:06.990Z,5.90
2022-08-20T13:03:36.910Z,5.78
2022-08-20T13:06:14.807Z,5.93
2022-08-20T13:08:47.364Z,5.20
2022-08-20T13:11:17.386Z,5.25
2022-08-20T13:13:48.085Z,5.30
2022-08-20T13:16:18.345Z,5.33
2022-08-20T13:18:48.722Z,5.30
2022-08-20T13:21:23.434Z,5.63
2022-08-20T13:23:55.617Z,5.45
2022-08-20T13:26:25.581Z,5.75
2022-08-20T13:28:55.463Z,5.20
2022-08-20T13:31:25.386Z,5.32
2022-08-20T13:33:55.263Z,5.45
2022-08-20T13:36:25.287Z,5.50
2022-08-20T13:38:56.639Z,5.03
2022-08-20T13:41:26.717Z,5.22
2022-08-20T13:43:56.584Z,5.18
2022-08-20T13:46:26.685Z,5.90
2022-08-20T13:48:56.583Z,5.70
2022-08-20T13:51:27.626Z,5.45
2022-08-20T13:54:01.942Z,6.05
2022-08-20T13:56:31.823Z,5.68
2022-08-20T13:59:01.624Z,5.70
2022-08-20T14:01:31.832Z,5.82
2022-08-20T14:04:01.905Z,6.03
2022-08-20T14:06:31.882Z,5.68
2022-08-20T14:09:03.362Z,5.93
2022-08-20T14:14:03.245Z,6.00
2022-08-20T14:16:35.627Z,5.93
2022-08-20T14:19:05.862Z,5.82
2022-08-20T14:21:35.762Z,6.90
2022-08-20T14:24:07.600Z,6.72
2022-08-20T14:26:37.522Z,7.07
2022-08-20T14:29:07.345Z,6.53
2022-08-20T14:31:37.284Z,6.80
2022-08-20T14:34:07.427Z,7.10
2022-08-20T14:36:37.242Z,7.38
2022-08-20T14:39:09.279Z,7.50
2022-08-20T14:41:39.216Z,7.25
2022-08-20T14:44:09.087Z,7.00
2022-08-20T14:46:39.138Z,7.50
2022-08-20T14:49:09.047Z,7.47
2022-08-20T14:51:39.197Z,7.97
2022-08-20T14:54:10.702Z,7.63
2022-08-20T14:59:10.561Z,8.45
2022-08-20T15:01:40.541Z,7.78
2022-08-20T15:04:10.568Z,7.95
2022-08-20T15:06:40.401Z,7.55
2022-08-20T15:09:11.758Z,7.90
2022-08-20T15:11:41.648Z,7.40
2022-08-20T15:14:11.842Z,6.82
2022-08-20T15:16:45.304Z,7.25
2022-08-20T15:19:15.307Z,7.80
2022-08-20T15:21:45.849Z,8.10
2022-08-20T15:24:19.220Z,7.38
2022-08-20T15:26:49.480Z,7.55
2022-08-20T15:29:22.878Z,6.63
2022-08-20T15:31:54.759Z,7.30
2022-08-20T15:34:24.680Z,7.35
2022-08-20T15:36:54.632Z,7.13
2022-08-20T15:39:26.065Z,7.55
2022-08-20T15:41:55.967Z,7.85
2022-08-20T15:44:25.723Z,7.03
2022-08-20T15:46:55.642Z,7.50
2022-08-20T15:49:27.169Z,6.93
2022-08-20T15:53:49.524Z,7.30
2022-08-20T15:56:49.366Z,8.07
2022-08-20T15:59:40.509Z,7.72
2022-08-20T16:02:34.586Z,7.43
2022-08-20T16:05:18.503Z,7.90
2022-08-20T16:08:04.086Z,7.20
2022-08-20T16:10:45.604Z,7.97
2022-08-20T16:13:36.060Z,8.70
2022-08-20T16:16:09.159Z,8.50
2022-08-20T16:18:41.195Z,7.80
2022-08-20T16:21:15.190Z,8.60
2022-08-20T16:23:46.402Z,7.97
2022-08-20T16:26:48.784Z,8.55
2022-08-20T16:29:25.439Z,8.35
2022-08-20T16:32:03.624Z,8.63
2022-08-20T16:34:40.939Z,8.63
2022-08-20T16:37:26.942Z,8.73
2022-08-20T16:40:04.328Z,8.40
2022-08-20T16:42:41.423Z,9.68
2022-08-20T16:45:21.185Z,9.23
2022-08-20T16:47:55.203Z,8.70
2022-08-20T16:50:29.662Z,10.80
2022-08-20T16:52:59.685Z,14.30
2022-08-20T16:55:29.746Z,11.93
2022-08-20T16:58:01.782Z,10.48
2022-08-20T17:00:39.020Z,10.95
2022-08-20T17:03:38.529Z,10.10
2022-08-20T17:06:21.338Z,9.88
2022-08-20T17:08:56.239Z,11.82
2022-08-20T17:11:32.805Z,10.88
2022-08-20T17:14:13.821Z,11.20
2022-08-20T17:16:50.014Z,10.23
2022-08-20T17:19:27.446Z,10.15
2022-08-20T17:21:58.406Z,10.90
2022-08-20T17:24:32.484Z,10.83
2022-08-20T17:27:10.103Z,10.95
2022-08-20T17:29:53.840Z,9.70
2022-08-20T17:32:27.841Z,10.85
2022-08-20T17:35:00.147Z,10.38
2022-08-20T17:37:35.678Z,11.27
2022-08-20T17:40:17.717Z,10.65
2022-08-20T17:42:54.477Z,12.48
2022-08-20T17:45:32.626Z,14.63
2022-08-20T17:48:03.183Z,11.63
2022-08-20T17:50:37.401Z,13.07
2022-08-20T17:53:22.640Z,15.50
2022-08-20T17:56:00.928Z,14.55
2022-08-20T17:58:39.980Z,12.85
2022-08-20T18:01:26.703Z,11.57
2022-08-20T18:03:57.060Z,11.50
2022-08-20T18:06:36.252Z,11.23
2022-08-20T18:09:15.752Z,10.23
2022-08-20T18:11:53.744Z,11.27
2022-08-20T18:14:51.749Z,12.73
2022-08-20T18:18:04.306Z,11.80
2022-08-20T18:23:25.202Z,11.25
2022-08-20T18:26:01.778Z,10.80
2022-08-20T18:28:39.927Z,11.75
2022-08-20T18:31:12.338Z,10.73
2022-08-20T18:33:46.113Z,8.50
2022-08-20T18:36:29.098Z,9.13
2022-08-20T18:39:04.873Z,9.88
2022-08-20T18:41:38.680Z,9.00
2022-08-20T18:44:14.262Z,10.80
2022-08-20T18:46:56.847Z,10.13
2022-08-20T18:49:34.319Z,9.65
2022-08-20T18:53:36.194Z,9.60
2022-08-20T18:56:08.994Z,8.50
2022-08-20T18:58:56.786Z,8.40
2022-08-20T19:01:26.697Z,9.50
2022-08-20T19:03:58.926Z,7.07
2022-08-20T19:06:41.688Z,7.15
2022-08-20T19:09:22.671Z,6.85
2022-08-20T19:12:13.457Z,6.45
2022-08-20T19:15:00.291Z,6.72
2022-08-20T19:18:02.957Z,6.43
2022-08-20T19:20:37.495Z,6.22
2022-08-20T19:23:14.447Z,6.10
2022-08-20T19:26:00.257Z,7.00
2022-08-20T19:28:33.780Z,6.50
2022-08-20T19:31:13.463Z,6.15
2022-08-20T19:33:44.901Z,6.35
2022-08-20T19:36:22.334Z,6.05
2022-08-20T19:39:01.460Z,5.55
2022-08-20T19:41:36.163Z,5.18
2022-08-20T19:44:06.140Z,5.55
2022-08-20T19:46:41.586Z,5.78
2022-08-20T19:49:22.812Z,5.13
2022-08-20T19:52:10.282Z,5.37
2022-08-20T19:54:50.387Z,6.03
2022-08-20T19:57:24.079Z,5.38
2022-08-20T19:59:58.423Z,5.50
2022-08-20T20:02:31.259Z,5.75
2022-08-20T20:05:01.131Z,5.22
2022-08-20T20:07:39.644Z,6.00
2022-08-20T20:10:21.932Z,5.80
2022-08-20T20:12:53.493Z,5.32
2022-08-20T20:15:24.732Z,5.82
2022-08-20T20:17:56.206Z,5.57
2022-08-20T20:20:31.660Z,6.25
2022-08-20T20:23:07.010Z,5.40
2022-08-20T20:25:45.464Z,5.35
2022-08-20T20:28:23.822Z,4.95
2022-08-20T20:30:54.044Z,5.10
2022-08-20T20:33:33.301Z,5.22
2022-08-20T20:36:11.485Z,4.43
2022-08-20T20:38:54.901Z,5.07
2022-08-20T20:41:28.597Z,6.50
2022-08-20T20:44:08.870Z,5.95
2022-08-20T20:46:42.236Z,6.35
2022-08-20T20:49:24.160Z,6.90
2022-08-20T20:52:02.117Z,5.75
2022-08-20T20:54:44.960Z,6.18
2022-08-20T20:57:37.918Z,6.70
2022-08-20T21:00:13.821Z,8.88
2022-08-20T21:02:44.202Z,8.70
2022-08-20T21:05:15.802Z,8.38
2022-08-20T21:07:51.845Z,9.35
2022-08-20T21:10:24.583Z,9.40
2022-08-20T21:12:55.902Z,8.13
2022-08-20T21:15:29.260Z,8.07
2022-08-20T21:18:02.528Z,8.18
2022-08-20T21:20:33.088Z,7.70
2022-08-20T21:23:03.145Z,8.85
2022-08-20T21:25:35.804Z,8.30
2022-08-20T21:28:06.419Z,7.30
2022-08-20T21:30:37.866Z,7.90
2022-08-20T21:33:07.901Z,7.57
2022-08-20T21:35:37.850Z,7.22
2022-08-20T21:38:07.921Z,7.15
2022-08-20T21:40:38.082Z,7.15
2022-08-20T21:43:11.498Z,7.07
2022-08-20T21:45:42.987Z,4.70
2022-08-20T21:48:14.383Z,6.00
2022-08-20T21:53:36.230Z,3.45
2022-08-20T21:56:09.823Z,3.53
2022-08-20T21:58:41.169Z,3.75
2022-08-20T22:01:11.574Z,3.67
2022-08-20T22:03:41.600Z,3.83
2022-08-20T22:06:14.927Z,3.70
2022-08-20T22:08:46.354Z,3.60
2022-08-20T22:11:16.863Z,3.28
2022-08-20T22:13:47.944Z,3.42
2022-08-20T22:16:20.541Z,3.47
2022-08-20T22:18:52.242Z,2.78
2022-08-20T22:21:26.571Z,3.55
2022-08-20T22:24:01.737Z,3.10
2022-08-20T22:26:32.861Z,3.33
2022-08-20T22:29:02.761Z,3.38
2022-08-20T22:31:36.687Z,2.65
2022-08-20T22:34:07.861Z,1.92
2022-08-20T22:36:37.666Z,2.13
2022-08-20T22:39:10.364Z,3.65
2022-08-20T22:41:42.271Z,4.40
2022-08-20T22:44:12.179Z,3.08
2022-08-20T22:46:48.135Z,2.10
2022-08-20T22:49:22.393Z,2.00
2022-08-20T22:51:52.761Z,2.13
2022-08-20T22:54:26.732Z,2.22
2022-08-20T22:56:57.262Z,2.45
2022-08-20T22:59:27.302Z,1.52
2022-08-20T23:01:57.842Z,2.38
2022-08-20T23:04:30.666Z,1.50
2022-08-20T23:07:01.843Z,2.72
2022-08-20T23:09:33.804Z,1.42
2022-08-20T23:12:03.904Z,1.42
2022-08-20T23:14:34.701Z,1.50
2022-08-20T23:17:13.211Z,1.98
2022-08-20T23:19:44.678Z,1.60
2022-08-20T23:22:15.512Z,1.48
2022-08-20T23:24:47.523Z,1.70
2022-08-20T23:27:20.962Z,1.40
2022-08-20T23:29:51.296Z,1.80
2022-08-20T23:32:21.560Z,1.60
2022-08-20T23:34:51.402Z,1.80
2022-08-20T23:37:21.312Z,1.85
2022-08-20T23:39:52.769Z,1.67
2022-08-20T23:42:22.805Z,1.38
2022-08-20T23:44:52.743Z,2.00
2022-08-20T23:47:25.004Z,1.67
2022-08-20T23:52:24.381Z,1.60
2022-08-20T23:54:55.744Z,1.83
2022-08-20T23:57:25.819Z,2.23
2022-08-20T23:59:55.982Z,2.50
